createdAt,value
2023-11-27T00:00:37.363Z,6.30
2023-11-27T00:03:33.235Z,6.40
2023-11-27T00:06:19.480Z,8.10
2023-11-27T00:09:06.006Z,7.80
2023-11-27T00:11:52.834Z,7.90
2023-11-27T00:14:39.422Z,7.50
2023-11-27T00:17:26.484Z,7.20
2023-11-27T00:20:13.376Z,6.20
2023-11-27T00:23:00.127Z,7.90
2023-11-27T00:25:46.415Z,8.40
2023-11-27T00:28:33.615Z,8.30
2023-11-27T00:31:20.259Z,11.10
2023-11-27T00:34:06.799Z,9.90
2023-11-27T00:36:53.479Z,7.80
2023-11-27T00:39:41.446Z,8.60
2023-11-27T00:42:29.468Z,13.50
2023-11-27T00:45:16.074Z,12.30
2023-11-27T00:48:03.341Z,12.50
2023-11-27T00:50:49.713Z,13.00
2023-11-27T00:53:37.428Z,11.20
2023-11-27T00:56:24.297Z,11.30
2023-11-27T00:59:10.908Z,13.50
2023-11-27T01:01:57.813Z,12.70
2023-11-27T01:04:44.474Z,12.00
2023-11-27T01:07:31.570Z,11.50
2023-11-27T01:10:18.704Z,10.00
2023-11-27T01:13:06.038Z,7.30
2023-11-27T01:15:57.937Z,7.80
2023-11-27T01:18:44.668Z,7.80
2023-11-27T01:21:31.009Z,7.60
2023-11-27T01:24:17.526Z,8.30
2023-11-27T01:27:04.476Z,7.10
2023-11-27T01:29:51.063Z,7.20
2023-11-27T01:32:38.364Z,9.50
2023-11-27T01:35:25.366Z,6.70
2023-11-27T01:38:11.789Z,7.50
2023-11-27T01:40:58.779Z,7.90
2023-11-27T01:43:46.310Z,6.70
2023-11-27T01:46:32.892Z,8.60
2023-11-27T01:49:20.315Z,5.60
2023-11-27T01:52:09.047Z,7.90
2023-11-27T01:54:56.927Z,8.60
2023-11-27T01:57:43.864Z,8.70
2023-11-27T02:00:31.457Z,8.90
2023-11-27T02:03:18.010Z,9.40
2023-11-27T02:06:05.270Z,10.50
2023-11-27T02:08:51.657Z,7.80
2023-11-27T02:12:04.659Z,8.20
2023-11-27T02:14:53.713Z,10.30
2023-11-27T02:17:40.252Z,9.20
2023-11-27T02:20:26.806Z,8.60
2023-11-27T02:23:18.181Z,13.00
2023-11-27T02:26:05.650Z,9.00
2023-11-27T02:28:52.602Z,8.90
2023-11-27T02:31:40.103Z,9.20
2023-11-27T02:34:26.809Z,8.80
2023-11-27T02:37:13.594Z,9.60
2023-11-27T02:40:00.573Z,8.30
2023-11-27T02:42:47.205Z,7.70
2023-11-27T02:45:34.736Z,8.00
2023-11-27T02:48:21.865Z,8.10
2023-11-27T02:51:08.265Z,9.30
2023-11-27T02:53:55.738Z,10.40
2023-11-27T02:56:42.507Z,11.20
2023-11-27T02:59:29.041Z,9.20
2023-11-27T03:02:15.893Z,8.20
2023-11-27T03:05:04.133Z,10.90
2023-11-27T03:07:50.408Z,9.00
2023-11-27T03:10:36.999Z,8.50
2023-11-27T03:13:23.741Z,10.30
2023-11-27T03:16:10.586Z,9.20
2023-11-27T03:18:57.577Z,11.70
2023-11-27T03:21:44.739Z,13.80
2023-11-27T03:24:31.453Z,14.10
2023-11-27T03:27:18.843Z,12.90
2023-11-27T03:30:07.534Z,13.40
2023-11-27T03:32:54.459Z,17.20
2023-11-27T03:35:41.201Z,13.20
2023-11-27T03:38:27.756Z,17.50
2023-11-27T03:41:22.298Z,10.70
2023-11-27T03:44:09.605Z,9.50
2023-11-27T03:46:57.432Z,7.50
2023-11-27T03:49:44.081Z,11.10
2023-11-27T03:52:31.482Z,10.70
2023-11-27T03:55:18.331Z,11.30
2023-11-27T03:58:04.706Z,12.00
2023-11-27T04:00:51.451Z,11.30
2023-11-27T04:03:41.211Z,11.20
2023-11-27T04:06:33.308Z,10.50
2023-11-27T04:09:22.812Z,9.40
2023-11-27T04:12:09.698Z,14.00
2023-11-27T04:14:56.170Z,9.90
2023-11-27T04:17:42.714Z,9.20
2023-11-27T04:20:32.629Z,9.70
2023-11-27T04:23:19.316Z,12.70
2023-11-27T04:26:06.462Z,9.50
2023-11-27T04:28:52.922Z,16.50
2023-11-27T04:31:39.405Z,10.90
2023-11-27T04:34:25.999Z,9.90
2023-11-27T04:37:16.068Z,10.40
2023-11-27T04:40:03.349Z,13.10
2023-11-27T04:42:50.554Z,11.20
2023-11-27T04:45:36.841Z,12.10
2023-11-27T04:48:23.736Z,10.30
2023-11-27T04:51:10.454Z,10.60
2023-11-27T04:53:57.133Z,10.70
2023-11-27T04:56:43.992Z,11.40
2023-11-27T04:59:31.097Z,12.30
2023-11-27T05:02:18.778Z,11.70
2023-11-27T05:05:06.915Z,10.50
2023-11-27T05:07:53.293Z,10.70
2023-11-27T05:10:40.441Z,10.40
2023-11-27T05:13:26.970Z,11.40
2023-11-27T05:16:14.367Z,12.00
2023-11-27T05:19:00.812Z,14.00
2023-11-27T05:21:47.749Z,13.80
2023-11-27T05:24:34.349Z,11.30
2023-11-27T05:27:21.465Z,10.20
2023-11-27T05:30:08.597Z,11.00
2023-11-27T05:32:54.916Z,9.40
2023-11-27T05:35:41.344Z,14.00
2023-11-27T05:38:27.592Z,10.60
2023-11-27T05:41:14.022Z,12.50
2023-11-27T05:44:00.935Z,8.30
2023-11-27T05:46:47.619Z,18.00
2023-11-27T05:49:34.654Z,11.50
2023-11-27T05:52:21.333Z,10.20
2023-11-27T05:55:08.663Z,11.50
2023-11-27T05:57:56.089Z,10.30
2023-11-27T06:00:42.449Z,10.50
2023-11-27T06:03:30.136Z,11.10
2023-11-27T06:06:18.253Z,9.50
2023-11-27T06:09:07.958Z,11.50
2023-11-27T06:11:55.238Z,10.40
2023-11-27T06:14:41.516Z,12.70
2023-11-27T06:17:28.037Z,11.60
2023-11-27T06:20:15.791Z,11.50
2023-11-27T06:23:02.252Z,12.00
2023-11-27T06:25:48.899Z,11.90
2023-11-27T06:28:35.346Z,9.90
2023-11-27T06:31:22.433Z,11.80
2023-11-27T06:34:09.107Z,12.20
2023-11-27T06:36:55.656Z,15.00
2023-11-27T06:39:42.008Z,11.90
2023-11-27T06:42:28.995Z,10.70
2023-11-27T06:45:15.378Z,14.00
2023-11-27T06:48:02.022Z,13.00
2023-11-27T06:50:49.318Z,12.50
2023-11-27T06:53:35.879Z,12.20
2023-11-27T06:56:22.251Z,10.70
2023-11-27T06:59:09.188Z,9.00
2023-11-27T07:01:55.912Z,9.50
2023-11-27T07:04:42.536Z,11.50
2023-11-27T07:07:29.479Z,9.10
2023-11-27T07:10:16.472Z,10.10
2023-11-27T07:13:03.204Z,9.00
2023-11-27T07:15:51.140Z,9.70
2023-11-27T07:18:37.741Z,10.20
2023-11-27T07:21:28.814Z,11.10
2023-11-27T07:24:15.373Z,10.50
2023-11-27T07:27:05.645Z,8.30
2023-11-27T07:29:53.575Z,10.40
2023-11-27T07:32:40.149Z,10.90
2023-11-27T07:35:27.062Z,10.10
2023-11-27T07:38:13.570Z,11.70
2023-11-27T07:41:00.395Z,9.80
2023-11-27T07:43:47.023Z,12.00
2023-11-27T07:46:33.480Z,13.90
2023-11-27T07:49:20.626Z,12.40
2023-11-27T07:52:06.976Z,11.80
2023-11-27T07:54:53.348Z,12.70
2023-11-27T07:57:39.707Z,10.40
2023-11-27T08:00:27.782Z,10.70
2023-11-27T08:03:14.495Z,10.50
2023-11-27T08:06:00.897Z,12.30
2023-11-27T08:08:47.288Z,13.90
2023-11-27T08:11:35.286Z,13.30
2023-11-27T08:14:22.726Z,11.10
2023-11-27T08:17:09.324Z,9.80
2023-11-27T08:19:55.943Z,10.40
2023-11-27T08:22:46.629Z,10.20
2023-11-27T08:25:34.289Z,11.50
2023-11-27T08:28:22.871Z,10.50
2023-11-27T08:31:10.325Z,7.90
2023-11-27T08:33:56.760Z,7.70
2023-11-27T08:36:45.839Z,9.80
2023-11-27T08:39:33.147Z,9.20
2023-11-27T08:42:19.580Z,8.90
2023-11-27T08:45:21.015Z,8.20
2023-11-27T08:48:08.309Z,9.80
2023-11-27T08:50:54.891Z,10.80
2023-11-27T08:53:42.221Z,10.80
2023-11-27T08:56:34.900Z,9.10
2023-11-27T08:59:21.575Z,11.10
2023-11-27T09:02:08.381Z,10.70
2023-11-27T09:04:56.389Z,10.40
2023-11-27T09:07:43.101Z,10.20
2023-11-27T09:10:29.429Z,9.80
2023-11-27T09:13:16.173Z,8.40
2023-11-27T09:16:03.207Z,8.70
2023-11-27T09:18:50.169Z,9.20
2023-11-27T09:21:36.881Z,6.40
2023-11-27T09:24:23.229Z,5.70
2023-11-27T09:27:09.935Z,7.30
2023-11-27T09:29:56.464Z,7.20
2023-11-27T09:32:42.884Z,8.00
2023-11-27T09:35:29.431Z,7.50
2023-11-27T09:38:16.415Z,6.90
2023-11-27T09:41:04.246Z,8.90
2023-11-27T09:43:51.061Z,11.30
2023-11-27T09:46:39.026Z,8.60
2023-11-27T09:49:30.045Z,7.30
2023-11-27T09:52:21.523Z,7.60
2023-11-27T09:55:11.477Z,10.30
2023-11-27T09:58:00.692Z,11.20
2023-11-27T10:00:50.383Z,9.20
2023-11-27T10:03:37.690Z,8.10
2023-11-27T10:06:26.076Z,7.70
2023-11-27T10:09:15.548Z,6.90
2023-11-27T10:12:02.784Z,10.20
2023-11-27T10:14:49.670Z,10.80
2023-11-27T10:17:36.308Z,8.70
2023-11-27T10:20:25.739Z,9.30
2023-11-27T10:23:13.718Z,9.60
2023-11-27T10:26:02.196Z,8.10
2023-11-27T10:28:49.839Z,8.40
2023-11-27T10:31:38.507Z,6.70
2023-11-27T10:34:27.427Z,6.40
2023-11-27T10:37:14.693Z,6.70
2023-11-27T10:40:02.306Z,7.40
2023-11-27T10:42:50.359Z,8.60
2023-11-27T10:45:37.761Z,9.20
2023-11-27T10:48:37.416Z,8.90
2023-11-27T10:51:34.928Z,7.00
2023-11-27T10:54:25.286Z,8.80
2023-11-27T10:57:13.631Z,9.70
2023-11-27T11:00:00.738Z,7.80
2023-11-27T11:02:52.291Z,9.80
2023-11-27T11:05:50.618Z,10.00
2023-11-27T11:08:38.611Z,7.40
2023-11-27T11:11:25.375Z,8.20
2023-11-27T11:14:15.015Z,7.40
2023-11-27T11:17:09.488Z,6.00
2023-11-27T11:20:32.883Z,7.10
2023-11-27T11:23:36.581Z,6.50
2023-11-27T11:26:47.172Z,8.40
2023-11-27T11:29:37.486Z,7.80
2023-11-27T11:32:29.815Z,6.40
2023-11-27T11:35:19.186Z,5.00
2023-11-27T11:38:32.302Z,6.40
2023-11-27T11:41:18.736Z,7.80
2023-11-27T11:44:21.373Z,7.10
2023-11-27T11:47:28.693Z,8.30
2023-11-27T11:50:30.618Z,6.70
2023-11-27T11:53:23.445Z,8.40
2023-11-27T11:56:21.017Z,9.00
2023-11-27T11:59:14.760Z,9.20
2023-11-27T12:02:01.177Z,7.00
2023-11-27T12:04:55.357Z,8.00
2023-11-27T12:07:42.156Z,11.60
2023-11-27T12:10:32.394Z,7.60
2023-11-27T12:13:25.211Z,9.10
2023-11-27T12:16:13.963Z,7.30
2023-11-27T12:19:01.519Z,7.20
2023-11-27T12:22:05.619Z,7.70
2023-11-27T12:24:54.021Z,7.00
2023-11-27T12:27:40.493Z,10.80
2023-11-27T12:30:27.056Z,9.80
2023-11-27T12:33:16.584Z,8.70
2023-11-27T12:36:06.392Z,10.20
2023-11-27T12:38:54.508Z,8.00
2023-11-27T12:41:44.782Z,9.70
2023-11-27T12:44:32.847Z,9.50
2023-11-27T12:47:20.526Z,11.10
2023-11-27T12:50:23.891Z,28.60
2023-11-27T12:53:11.137Z,10.50
2023-11-27T12:55:57.868Z,10.70
2023-11-27T12:58:44.384Z,11.80
2023-11-27T13:01:30.692Z,12.10
2023-11-27T13:04:17.293Z,11.20
2023-11-27T13:07:14.004Z,10.20
2023-11-27T13:10:10.646Z,12.50
2023-11-27T13:12:57.166Z,9.10
2023-11-27T13:15:44.054Z,11.00
2023-11-27T13:18:32.935Z,9.70
2023-11-27T13:21:22.932Z,13.30
2023-11-27T13:24:14.464Z,10.60
2023-11-27T13:27:06.865Z,8.50
2023-11-27T13:29:53.825Z,8.10
2023-11-27T13:32:40.641Z,6.70
2023-11-27T13:35:33.530Z,8.80
2023-11-27T13:38:21.119Z,11.10
2023-11-27T13:41:11.412Z,11.60
2023-11-27T13:43:57.856Z,11.50
2023-11-27T13:46:44.829Z,13.80
2023-11-27T13:49:33.218Z,14.30
2023-11-27T13:52:20.441Z,13.80
2023-11-27T13:55:11.253Z,19.60
2023-11-27T14:00:49.749Z,11.70
2023-11-27T14:03:37.768Z,11.50
2023-11-27T14:06:26.651Z,11.90
2023-11-27T14:09:46.322Z,12.90
2023-11-27T14:12:44.947Z,13.40
2023-11-27T14:15:40.514Z,16.40
2023-11-27T14:18:28.079Z,15.50
2023-11-27T14:21:20.626Z,14.90
2023-11-27T14:24:16.834Z,16.00
2023-11-27T14:27:27.345Z,19.50
2023-11-27T14:30:15.009Z,17.30
2023-11-27T14:33:02.723Z,17.00
2023-11-27T14:35:50.371Z,16.10
2023-11-27T14:38:36.814Z,14.20
2023-11-27T14:41:23.696Z,13.40
2023-11-27T14:44:14.549Z,15.00
2023-11-27T14:47:01.123Z,22.40
2023-11-27T14:49:48.047Z,23.20
2023-11-27T14:52:34.912Z,18.20
2023-11-27T14:55:21.758Z,20.50
2023-11-27T14:58:08.485Z,18.70
2023-11-27T15:00:57.847Z,17.10
2023-11-27T15:03:46.723Z,13.90
2023-11-27T15:06:36.235Z,12.90
2023-11-27T15:09:23.837Z,16.80
2023-11-27T15:12:12.768Z,14.00
2023-11-27T15:14:59.464Z,12.30
2023-11-27T15:17:48.654Z,14.30
2023-11-27T15:20:36.266Z,11.00
2023-11-27T15:23:22.928Z,21.60
2023-11-27T15:26:10.629Z,27.70
2023-11-27T15:28:57.659Z,421.90
2023-11-27T15:31:44.551Z,372.70
2023-11-27T15:34:31.570Z,232.60
2023-11-27T15:37:18.206Z,64.40
2023-11-27T15:40:05.733Z,94.00
2023-11-27T15:42:51.973Z,83.80
2023-11-27T15:45:42.328Z,57.10
2023-11-27T15:48:29.066Z,51.00
2023-11-27T15:51:15.521Z,64.30
2023-11-27T15:54:01.862Z,46.90
2023-11-27T15:56:48.318Z,61.60
2023-11-27T15:59:35.382Z,48.70
2023-11-27T16:02:22.146Z,56.80
2023-11-27T16:05:11.180Z,53.00
2023-11-27T16:08:00.693Z,47.70
2023-11-27T16:10:49.972Z,47.70
2023-11-27T16:13:37.367Z,49.70
2023-11-27T16:16:26.094Z,49.50
2023-11-27T16:19:12.701Z,42.80
2023-11-27T16:21:59.100Z,45.00
2023-11-27T16:24:47.119Z,42.30
2023-11-27T16:27:35.332Z,46.80
2023-11-27T16:30:23.101Z,43.80
2023-11-27T16:33:10.349Z,40.70
2023-11-27T16:36:00.871Z,34.00
2023-11-27T16:38:47.421Z,39.30
2023-11-27T16:41:34.742Z,49.00
2023-11-27T16:44:23.396Z,52.00
2023-11-27T16:47:20.006Z,53.20
2023-11-27T16:50:14.301Z,55.20
2023-11-27T16:53:01.411Z,57.20
2023-11-27T16:55:47.927Z,59.50
2023-11-27T16:58:34.415Z,54.90
2023-11-27T17:01:21.549Z,44.50
2023-11-27T17:04:09.182Z,37.90
2023-11-27T17:06:56.500Z,44.90
2023-11-27T17:09:43.206Z,48.80
2023-11-27T17:12:29.585Z,56.40
2023-11-27T17:15:17.803Z,45.70
2023-11-27T17:18:04.469Z,49.00
2023-11-27T17:20:51.372Z,53.10
2023-11-27T17:23:39.016Z,56.80
2023-11-27T17:26:25.876Z,60.50
2023-11-27T17:29:14.788Z,46.00
2023-11-27T17:32:02.542Z,56.80
2023-11-27T17:34:49.248Z,57.60
2023-11-27T17:37:36.344Z,54.00
2023-11-27T17:40:23.669Z,59.60
2023-11-27T17:43:13.453Z,57.10
2023-11-27T17:45:59.881Z,68.30
2023-11-27T17:48:47.956Z,89.90
2023-11-27T17:51:35.951Z,77.70
2023-11-27T17:54:22.738Z,62.60
2023-11-27T17:57:09.746Z,58.00
2023-11-27T17:59:56.503Z,58.80
2023-11-27T18:02:51.210Z,63.60
2023-11-27T18:05:38.065Z,57.50
2023-11-27T18:08:24.599Z,44.60
2023-11-27T18:11:12.323Z,31.60
2023-11-27T18:13:58.698Z,58.30
2023-11-27T18:16:45.906Z,68.70
2023-11-27T18:19:32.501Z,65.10
2023-11-27T18:22:19.149Z,56.00
2023-11-27T18:25:06.304Z,59.10
2023-11-27T18:27:57.063Z,58.50
2023-11-27T18:30:43.503Z,63.20
2023-11-27T18:33:30.185Z,54.60
2023-11-27T18:36:17.572Z,54.60
2023-11-27T18:39:04.421Z,60.60
2023-11-27T18:41:50.726Z,52.30
2023-11-27T18:44:38.192Z,53.80
2023-11-27T18:47:24.490Z,54.90
2023-11-27T18:50:13.381Z,53.70
2023-11-27T18:53:02.258Z,45.00
2023-11-27T18:55:48.860Z,56.40
2023-11-27T18:58:35.622Z,55.30
2023-11-27T19:01:24.349Z,47.10
2023-11-27T19:04:11.627Z,57.70
2023-11-27T19:06:58.497Z,54.60
2023-11-27T19:09:45.415Z,51.60
2023-11-27T19:12:32.201Z,51.00
2023-11-27T19:15:20.019Z,58.10
2023-11-27T19:18:08.745Z,56.50
2023-11-27T19:20:55.539Z,50.50
2023-11-27T19:23:42.412Z,50.70
2023-11-27T19:26:29.376Z,54.30
2023-11-27T19:29:16.120Z,47.00
2023-11-27T19:32:02.540Z,40.40
2023-11-27T19:34:50.651Z,56.50
2023-11-27T19:37:37.341Z,36.10
2023-11-27T19:40:24.154Z,45.30
2023-11-27T19:43:11.970Z,55.90
2023-11-27T19:45:59.870Z,59.10
2023-11-27T19:48:47.332Z,62.00
2023-11-27T19:51:34.133Z,67.50
2023-11-27T19:54:20.685Z,62.50
2023-11-27T19:57:07.029Z,54.50
2023-11-27T19:59:55.261Z,61.30
2023-11-27T20:02:42.739Z,57.60
2023-11-27T20:05:29.596Z,59.70
2023-11-27T20:08:16.031Z,58.70
2023-11-27T20:11:04.166Z,58.20
2023-11-27T20:13:50.861Z,60.70
2023-11-27T20:16:40.948Z,64.70
2023-11-27T20:19:27.861Z,64.10
2023-11-27T20:22:15.068Z,59.30
2023-11-27T20:25:01.740Z,57.20
2023-11-27T20:27:48.978Z,52.60
2023-11-27T20:30:35.877Z,50.10
2023-11-27T20:33:43.166Z,46.30
2023-11-27T20:36:30.878Z,49.10
2023-11-27T20:39:17.960Z,46.10
2023-11-27T20:42:04.390Z,51.60
2023-11-27T20:44:55.805Z,53.50
2023-11-27T20:47:44.829Z,50.90
2023-11-27T20:50:31.254Z,53.50
2023-11-27T20:53:18.010Z,50.20
2023-11-27T20:56:04.810Z,46.90
2023-11-27T20:58:52.481Z,55.80
2023-11-27T21:01:39.382Z,56.60
2023-11-27T21:04:26.827Z,56.90
2023-11-27T21:07:13.296Z,70.10
2023-11-27T21:09:59.685Z,89.30
2023-11-27T21:12:46.463Z,79.70
2023-11-27T21:15:32.787Z,72.20
2023-11-27T21:18:20.418Z,71.50
2023-11-27T21:21:07.393Z,63.50
2023-11-27T21:23:54.039Z,57.00
2023-11-27T21:26:40.899Z,59.80
2023-11-27T21:29:27.403Z,57.60
2023-11-27T21:32:15.405Z,57.50
2023-11-27T21:35:03.385Z,54.80
2023-11-27T21:37:50.689Z,62.90
2023-11-27T21:40:37.882Z,62.40
2023-11-27T21:43:24.766Z,80.30
2023-11-27T21:46:11.833Z,62.80
2023-11-27T21:48:58.729Z,59.50
2023-11-27T21:51:45.302Z,61.00
2023-11-27T21:54:31.921Z,62.10
2023-11-27T21:57:18.960Z,69.10
2023-11-27T22:00:11.810Z,69.80
2023-11-27T22:02:58.917Z,73.60
2023-11-27T22:05:45.639Z,73.60
2023-11-27T22:08:32.343Z,78.90
2023-11-27T22:11:20.812Z,72.00
2023-11-27T22:14:07.272Z,75.40
2023-11-27T22:16:54.242Z,81.80
2023-11-27T22:19:40.879Z,79.50
2023-11-27T22:22:27.333Z,80.10
2023-11-27T22:25:13.918Z,77.30
2023-11-27T22:28:00.531Z,70.30
2023-11-27T22:30:47.196Z,73.50
2023-11-27T22:33:33.714Z,57.60
2023-11-27T22:36:20.258Z,61.80
2023-11-27T22:39:06.776Z,57.40
2023-11-27T22:41:53.519Z,53.10
2023-11-27T22:44:40.401Z,50.00
2023-11-27T22:47:26.902Z,47.10
2023-11-27T22:50:13.318Z,46.50
2023-11-27T22:53:00.317Z,45.70
2023-11-27T22:55:47.339Z,44.50
2023-11-27T22:58:34.201Z,46.00
2023-11-27T23:01:20.618Z,40.50
2023-11-27T23:04:07.015Z,39.10
2023-11-27T23:06:54.318Z,42.60
2023-11-27T23:09:40.670Z,42.90
2023-11-27T23:12:27.534Z,36.60
2023-11-27T23:15:14.218Z,37.00
2023-11-27T23:18:00.587Z,37.80
2023-11-27T23:20:47.117Z,36.60
2023-11-27T23:23:33.619Z,32.50
2023-11-27T23:26:20.617Z,30.70
2023-11-27T23:29:08.773Z,31.20
2023-11-27T23:31:58.361Z,30.30
2023-11-27T23:34:46.479Z,34.70
2023-11-27T23:37:33.110Z,33.00
2023-11-27T23:40:20.122Z,35.20
2023-11-27T23:43:06.957Z,35.30
2023-11-27T23:45:53.767Z,24.70
2023-11-27T23:48:40.941Z,35.70
2023-11-27T23:51:30.836Z,33.00
2023-11-27T23:54:16.881Z,31.20
2023-11-27T23:57:04.378Z,31.90
2023-11-27T23:59:50.756Z,32.10
